createdAt,value
2019-02-23T00:01:58.426Z,3.80
2019-02-23T00:04:28.896Z,3.63
2019-02-23T00:06:59.367Z,4.93
2019-02-23T00:09:30.026Z,3.60
2019-02-23T00:12:00.438Z,4.50
2019-02-23T00:14:30.886Z,3.60
2019-02-23T00:17:01.335Z,3.10
2019-02-23T00:19:31.786Z,4.53
2019-02-23T00:22:02.219Z,4.60
2019-02-23T00:24:32.736Z,4.87
2019-02-23T00:27:03.221Z,5.50
2019-02-23T00:29:33.622Z,4.80
2019-02-23T00:32:04.051Z,5.57
2019-02-23T00:34:34.479Z,5.80
2019-02-23T00:37:04.930Z,5.27
2019-02-23T00:39:36.290Z,5.20
2019-02-23T00:42:06.832Z,4.83
2019-02-23T00:44:37.264Z,5.50
2019-02-23T00:47:07.662Z,6.10
2019-02-23T00:49:38.120Z,5.33
2019-02-23T00:52:08.538Z,4.87
2019-02-23T00:54:38.976Z,6.00
2019-02-23T00:57:09.423Z,5.90
2019-02-23T00:59:39.867Z,5.93
2019-02-23T01:02:12.063Z,5.40
2019-02-23T01:04:42.433Z,6.50
2019-02-23T01:07:13.218Z,5.97
2019-02-23T01:09:43.711Z,5.53
2019-02-23T01:12:14.207Z,5.90
2019-02-23T01:14:44.610Z,6.33
2019-02-23T01:17:15.158Z,6.63
2019-02-23T01:19:48.033Z,6.93
2019-02-23T01:22:17.759Z,6.23
2019-02-23T01:24:48.234Z,6.23
2019-02-23T01:27:18.675Z,7.40
2019-02-23T01:29:49.107Z,5.87
2019-02-23T01:32:19.584Z,7.30
2019-02-23T01:34:50.037Z,6.53
2019-02-23T01:37:20.454Z,7.37
2019-02-23T01:39:51.046Z,7.80
2019-02-23T01:42:21.500Z,6.57
2019-02-23T01:44:51.898Z,7.53
2019-02-23T01:47:22.339Z,5.97
2019-02-23T01:49:58.746Z,6.83
2019-02-23T01:52:24.859Z,6.63
2019-02-23T01:54:55.268Z,7.70
2019-02-23T01:57:25.715Z,7.30
2019-02-23T01:59:56.151Z,8.97
2019-02-23T02:02:26.810Z,8.13
2019-02-23T02:04:57.365Z,6.63
2019-02-23T02:07:27.847Z,7.03
2019-02-23T02:09:58.375Z,7.73
2019-02-23T02:12:28.798Z,6.90
2019-02-23T02:14:59.199Z,7.30
2019-02-23T02:17:29.636Z,6.80
2019-02-23T02:20:10.609Z,6.53
2019-02-23T02:22:32.328Z,8.20
2019-02-23T02:25:02.773Z,8.40
2019-02-23T02:27:33.247Z,6.90
2019-02-23T02:30:03.886Z,8.13
2019-02-23T02:32:34.290Z,6.03
2019-02-23T02:35:04.871Z,7.10
2019-02-23T02:37:35.343Z,8.17
2019-02-23T02:40:06.565Z,7.00
2019-02-23T02:42:37.002Z,7.70
2019-02-23T02:45:09.368Z,9.03
2019-02-23T02:47:39.753Z,8.00
2019-02-23T02:50:23.304Z,7.13
2019-02-23T02:52:43.630Z,8.53
2019-02-23T02:55:14.059Z,8.53
2019-02-23T02:57:44.520Z,7.70
2019-02-23T03:00:15.558Z,8.00
2019-02-23T03:02:46.010Z,7.03
2019-02-23T03:05:16.403Z,7.03
2019-02-23T03:07:47.057Z,7.80
2019-02-23T03:10:17.531Z,8.07
2019-02-23T03:12:48.173Z,7.63
2019-02-23T03:15:19.557Z,8.23
2019-02-23T03:17:50.176Z,7.40
2019-02-23T03:20:20.607Z,7.90
2019-02-23T03:22:51.110Z,7.00
2019-02-23T03:25:21.738Z,8.80
2019-02-23T03:27:52.163Z,7.00
2019-02-23T03:30:22.592Z,8.27
2019-02-23T03:32:53.093Z,9.00
2019-02-23T03:35:23.549Z,8.90
2019-02-23T03:37:53.982Z,8.50
2019-02-23T03:40:24.409Z,9.30
2019-02-23T03:42:54.828Z,7.40
2019-02-23T03:45:25.263Z,9.63
2019-02-23T03:47:55.715Z,9.17
2019-02-23T03:50:26.161Z,9.40
2019-02-23T03:52:56.615Z,9.13
2019-02-23T03:55:27.059Z,7.90
2019-02-23T03:57:57.461Z,8.53
2019-02-23T04:00:27.905Z,8.97
2019-02-23T04:02:58.517Z,8.00
2019-02-23T04:05:29.067Z,7.60
2019-02-23T04:07:59.492Z,8.73
2019-02-23T04:10:29.909Z,8.60
2019-02-23T04:13:00.344Z,8.30
2019-02-23T04:15:30.759Z,8.17
2019-02-23T04:18:03.122Z,7.60
2019-02-23T04:20:34.161Z,8.40
2019-02-23T04:23:04.600Z,10.23
2019-02-23T04:25:35.341Z,7.77
2019-02-23T04:28:05.769Z,7.07
2019-02-23T04:30:36.230Z,7.83
2019-02-23T04:33:06.635Z,9.10
2019-02-23T04:35:37.086Z,7.43
2019-02-23T04:38:07.544Z,8.97
2019-02-23T04:40:38.180Z,8.50
2019-02-23T04:43:08.597Z,8.47
2019-02-23T04:45:38.993Z,8.60
2019-02-23T04:48:09.425Z,8.70
2019-02-23T04:50:39.822Z,8.97
2019-02-23T04:53:10.266Z,8.73
2019-02-23T04:55:40.662Z,9.20
2019-02-23T04:58:11.104Z,9.83
2019-02-23T05:00:44.855Z,10.20
2019-02-23T05:03:13.660Z,9.77
2019-02-23T05:05:44.112Z,9.60
2019-02-23T05:08:14.540Z,10.90
2019-02-23T05:10:45.014Z,8.80
2019-02-23T05:13:15.478Z,9.03
2019-02-23T05:15:45.995Z,10.50
2019-02-23T05:18:16.455Z,10.50
2019-02-23T05:20:46.894Z,10.80
2019-02-23T05:23:17.345Z,9.97
2019-02-23T05:25:47.753Z,10.33
2019-02-23T05:28:18.201Z,10.20
2019-02-23T05:30:48.925Z,10.80
2019-02-23T05:33:19.345Z,9.27
2019-02-23T05:35:49.787Z,10.90
2019-02-23T05:38:20.204Z,12.88
2019-02-23T05:40:50.616Z,11.70
2019-02-23T05:43:21.059Z,12.43
2019-02-23T05:45:51.579Z,12.63
2019-02-23T05:48:21.979Z,10.47
2019-02-23T05:50:52.455Z,9.83
2019-02-23T05:53:22.902Z,8.83
2019-02-23T05:55:53.354Z,10.37
2019-02-23T05:58:23.783Z,11.13
2019-02-23T06:00:54.201Z,11.53
2019-02-23T06:03:24.647Z,11.47
2019-02-23T06:05:55.048Z,11.63
2019-02-23T06:08:25.487Z,10.77
2019-02-23T06:10:55.992Z,10.47
2019-02-23T06:13:26.443Z,13.07
2019-02-23T06:15:58.935Z,11.10
2019-02-23T06:18:29.364Z,10.27
2019-02-23T06:20:59.834Z,10.63
2019-02-23T06:23:30.282Z,10.93
2019-02-23T06:26:00.739Z,11.00
2019-02-23T06:28:31.288Z,11.90
2019-02-23T06:31:01.737Z,10.80
2019-02-23T06:33:51.593Z,12.03
2019-02-23T06:36:22.043Z,10.07
2019-02-23T06:38:52.443Z,11.50
2019-02-23T06:41:22.850Z,11.20
2019-02-23T06:43:53.297Z,11.00
2019-02-23T06:46:23.739Z,12.10
2019-02-23T06:48:54.222Z,12.37
2019-02-23T06:51:25.102Z,10.10
2019-02-23T06:53:55.613Z,11.00
2019-02-23T06:56:26.199Z,10.77
2019-02-23T06:58:56.659Z,10.17
2019-02-23T07:01:27.238Z,8.73
2019-02-23T07:03:57.753Z,10.90
2019-02-23T07:06:28.437Z,11.33
2019-02-23T07:08:58.895Z,10.03
2019-02-23T07:11:29.367Z,10.47
2019-02-23T07:13:59.874Z,11.87
2019-02-23T07:16:30.373Z,10.77
2019-02-23T07:19:00.877Z,11.00
2019-02-23T07:21:31.327Z,9.67
2019-02-23T07:24:01.804Z,9.97
2019-02-23T07:26:32.232Z,10.60
2019-02-23T07:29:03.510Z,11.13
2019-02-23T07:31:34.062Z,12.50
2019-02-23T07:34:04.521Z,11.60
2019-02-23T07:36:35.249Z,12.27
2019-02-23T07:39:07.246Z,12.73
2019-02-23T07:41:38.174Z,10.53
2019-02-23T07:44:08.706Z,11.53
2019-02-23T07:46:39.163Z,12.10
2019-02-23T07:49:11.011Z,11.60
2019-02-23T07:51:41.530Z,12.90
2019-02-23T07:54:12.119Z,11.67
2019-02-23T07:56:42.609Z,12.00
2019-02-23T07:59:13.151Z,11.73
2019-02-23T08:01:43.573Z,13.53
2019-02-23T08:04:14.070Z,12.73
2019-02-23T08:06:44.623Z,12.60
2019-02-23T08:09:15.065Z,13.30
2019-02-23T08:11:45.615Z,11.93
2019-02-23T08:14:16.055Z,12.20
2019-02-23T08:16:46.862Z,12.53
2019-02-23T08:19:17.572Z,12.57
2019-02-23T08:21:48.056Z,12.23
2019-02-23T08:24:18.497Z,12.23
2019-02-23T08:26:49.143Z,12.83
2019-02-23T08:29:19.647Z,13.10
2019-02-23T08:31:50.131Z,12.33
2019-02-23T08:34:20.672Z,13.10
2019-02-23T08:36:51.276Z,15.33
2019-02-23T08:39:22.058Z,11.07
2019-02-23T08:41:52.602Z,11.50
2019-02-23T08:44:24.941Z,12.33
2019-02-23T08:46:55.361Z,12.50
2019-02-23T08:49:25.841Z,12.00
2019-02-23T08:51:56.275Z,11.13
2019-02-23T08:54:26.975Z,12.50
2019-02-23T08:56:57.554Z,11.97
2019-02-23T08:59:29.654Z,11.63
2019-02-23T09:02:00.136Z,11.97
2019-02-23T09:04:30.574Z,11.00
2019-02-23T09:07:01.226Z,11.60
2019-02-23T09:09:31.796Z,12.40
2019-02-23T09:12:02.224Z,11.00
2019-02-23T09:14:32.687Z,11.43
2019-02-23T09:17:03.144Z,11.97
2019-02-23T09:19:33.581Z,12.83
2019-02-23T09:22:04.177Z,12.47
2019-02-23T09:24:34.633Z,11.80
2019-02-23T09:27:05.276Z,11.67
2019-02-23T09:29:35.976Z,13.23
2019-02-23T09:32:06.627Z,12.70
2019-02-23T09:34:37.071Z,12.40
2019-02-23T09:37:07.573Z,11.57
2019-02-23T09:39:38.009Z,13.70
2019-02-23T09:42:08.469Z,11.20
2019-02-23T09:44:40.189Z,12.70
2019-02-23T09:47:10.683Z,13.33
2019-02-23T09:49:41.179Z,13.83
2019-02-23T09:52:11.638Z,15.00
2019-02-23T09:54:42.128Z,14.57
2019-02-23T09:57:12.560Z,11.17
2019-02-23T09:59:43.003Z,12.10
2019-02-23T10:02:13.453Z,13.03
2019-02-23T10:04:44.105Z,10.90
2019-02-23T10:07:14.791Z,12.60
2019-02-23T10:09:45.278Z,11.80
2019-02-23T10:12:15.802Z,11.40
2019-02-23T10:14:49.336Z,11.20
2019-02-23T10:17:19.823Z,12.17
2019-02-23T10:19:50.249Z,12.80
2019-02-23T10:22:20.742Z,10.90
2019-02-23T10:24:51.228Z,12.23
2019-02-23T10:27:21.836Z,12.17
2019-02-23T10:29:52.353Z,13.07
2019-02-23T10:32:22.829Z,11.53
2019-02-23T10:34:53.304Z,11.53
2019-02-23T10:37:23.861Z,11.50
2019-02-23T10:39:54.356Z,11.57
2019-02-23T10:42:24.783Z,12.40
2019-02-23T10:44:55.293Z,11.33
2019-02-23T10:47:25.785Z,12.60
2019-02-23T10:49:56.241Z,11.37
2019-02-23T10:52:26.747Z,11.63
2019-02-23T10:54:57.195Z,12.00
2019-02-23T10:57:27.639Z,12.27
2019-02-23T10:59:58.123Z,12.03
2019-02-23T11:02:28.677Z,11.83
2019-02-23T11:04:59.115Z,12.13
2019-02-23T11:07:29.685Z,12.00
2019-02-23T11:10:00.346Z,10.60
2019-02-23T11:12:30.782Z,12.00
2019-02-23T11:15:01.223Z,11.40
2019-02-23T11:17:31.966Z,11.40
2019-02-23T11:20:02.381Z,12.90
2019-02-23T11:22:32.863Z,12.07
2019-02-23T11:25:03.332Z,11.63
2019-02-23T11:27:34.536Z,11.60
2019-02-23T11:30:07.002Z,11.50
2019-02-23T11:32:37.530Z,11.70
2019-02-23T11:35:09.405Z,11.07
2019-02-23T11:37:40.019Z,12.77
2019-02-23T11:40:11.369Z,11.30
2019-02-23T11:42:41.846Z,11.53
2019-02-23T11:45:12.499Z,10.40
2019-02-23T11:47:43.054Z,11.60
2019-02-23T11:50:13.715Z,11.37
2019-02-23T11:52:44.174Z,11.50
2019-02-23T11:55:14.634Z,10.67
2019-02-23T11:57:45.084Z,9.10
2019-02-23T12:00:15.653Z,11.03
2019-02-23T12:02:52.603Z,9.93
2019-02-23T12:05:18.409Z,11.50
2019-02-23T12:07:48.851Z,10.23
2019-02-23T12:10:19.332Z,11.07
2019-02-23T12:12:49.841Z,11.30
2019-02-23T12:15:20.432Z,10.63
2019-02-23T12:17:50.994Z,10.97
2019-02-23T12:20:21.654Z,10.33
2019-02-23T12:22:52.183Z,9.97
2019-02-23T12:25:22.908Z,9.27
2019-02-23T12:27:53.364Z,9.27
2019-02-23T12:30:23.946Z,9.40
2019-02-23T12:32:54.440Z,8.37
2019-02-23T12:35:24.899Z,9.23
2019-02-23T12:37:55.401Z,9.37
2019-02-23T12:40:25.897Z,8.40
2019-02-23T12:42:56.342Z,8.47
2019-02-23T12:45:28.425Z,9.00
2019-02-23T12:47:59.158Z,9.97
2019-02-23T12:50:29.782Z,8.47
2019-02-23T12:53:00.409Z,10.47
2019-02-23T12:55:33.179Z,9.37
2019-02-23T12:58:03.625Z,9.37
2019-02-23T13:00:34.067Z,8.83
2019-02-23T13:03:04.583Z,8.37
2019-02-23T13:05:35.066Z,8.83
2019-02-23T13:08:05.547Z,8.00
2019-02-23T13:10:36.068Z,8.60
2019-02-23T13:13:45.853Z,9.00
2019-02-23T13:16:51.690Z,7.30
2019-02-23T13:20:35.066Z,8.70
2019-02-23T13:23:48.296Z,7.73
2019-02-23T13:27:11.150Z,8.13
2019-02-23T13:30:45.979Z,7.70
2019-02-23T13:33:59.994Z,7.90
2019-02-23T13:37:04.011Z,8.43
2019-02-23T13:40:43.340Z,9.03
2019-02-23T13:44:16.490Z,10.10
2019-02-23T13:47:42.828Z,9.40
2019-02-23T13:50:42.342Z,8.07
2019-02-23T13:53:58.386Z,7.23
2019-02-23T13:57:45.628Z,8.87
2019-02-23T14:01:20.348Z,8.40
2019-02-23T14:04:49.928Z,8.40
2019-02-23T14:07:59.379Z,7.80
2019-02-23T14:11:06.841Z,8.43
2019-02-23T14:14:32.003Z,8.53
2019-02-23T14:17:56.511Z,8.50
2019-02-23T14:21:04.743Z,7.20
2019-02-23T14:24:11.682Z,8.80
2019-02-23T14:27:54.138Z,8.10
2019-02-23T14:31:05.796Z,8.30
2019-02-23T14:34:10.591Z,7.93
2019-02-23T14:37:43.785Z,8.13
2019-02-23T14:40:41.257Z,8.00
2019-02-23T14:44:02.273Z,7.47
2019-02-23T14:47:33.438Z,8.10
2019-02-23T14:51:04.442Z,6.90
2019-02-23T14:54:42.881Z,7.23
2019-02-23T14:58:13.078Z,7.17
2019-02-23T15:01:33.822Z,6.97
2019-02-23T15:05:15.825Z,7.07
2019-02-23T15:08:15.086Z,7.07
2019-02-23T15:11:55.655Z,6.77
2019-02-23T15:15:15.331Z,6.87
2019-02-23T15:18:54.547Z,6.03
2019-02-23T15:21:51.611Z,7.00
2019-02-23T15:24:52.083Z,6.23
2019-02-23T15:27:53.419Z,6.90
2019-02-23T15:31:20.500Z,6.67
2019-02-23T15:34:40.051Z,7.40
2019-02-23T15:37:35.467Z,6.77
2019-02-23T15:40:48.912Z,6.40
2019-02-23T15:44:21.577Z,6.10
2019-02-23T15:47:40.766Z,7.90
2019-02-23T15:50:13.991Z,7.37
2019-02-23T15:52:44.262Z,6.50
2019-02-23T15:55:25.606Z,6.40
2019-02-23T15:57:47.282Z,6.13
2019-02-23T16:00:17.898Z,6.57
2019-02-23T16:02:48.417Z,6.40
2019-02-23T16:05:19.073Z,6.83
2019-02-23T16:07:49.550Z,7.87
2019-02-23T16:10:20.120Z,6.20
2019-02-23T16:12:50.798Z,6.47
2019-02-23T16:15:21.405Z,7.00
2019-02-23T16:17:52.275Z,7.20
2019-02-23T16:20:22.954Z,6.40
2019-02-23T16:22:53.390Z,7.07
2019-02-23T16:25:23.957Z,7.37
2019-02-23T16:27:54.797Z,7.73
2019-02-23T16:30:25.223Z,6.13
2019-02-23T16:32:55.894Z,6.20
2019-02-23T16:35:26.339Z,6.60
2019-02-23T16:37:56.870Z,5.67
2019-02-23T16:40:27.452Z,6.20
2019-02-23T16:42:58.183Z,6.30
2019-02-23T16:45:28.774Z,5.73
2019-02-23T16:47:59.577Z,5.70
2019-02-23T16:50:30.215Z,6.00
2019-02-23T16:53:00.767Z,5.70
2019-02-23T16:55:31.275Z,5.60
2019-02-23T16:58:01.907Z,5.10
2019-02-23T17:00:34.865Z,6.63
2019-02-23T17:03:05.438Z,29.53
2019-02-23T17:05:36.274Z,11.93
2019-02-23T17:08:07.008Z,6.20
2019-02-23T17:10:37.680Z,5.37
2019-02-23T17:13:14.349Z,6.10
2019-02-23T17:15:45.016Z,5.40
2019-02-23T17:18:15.740Z,5.40
2019-02-23T17:20:49.233Z,6.10
2019-02-23T17:23:19.914Z,6.07
2019-02-23T17:26:36.924Z,4.73
2019-02-23T17:29:07.481Z,5.07
2019-02-23T17:31:38.019Z,4.50
2019-02-23T17:34:08.664Z,5.93
2019-02-23T17:36:39.235Z,6.40
2019-02-23T17:39:10.496Z,5.13
2019-02-23T17:41:41.031Z,6.00
2019-02-23T17:44:11.595Z,5.50
2019-02-23T17:46:42.094Z,5.07
2019-02-23T17:49:12.884Z,5.10
2019-02-23T17:51:43.462Z,5.87
2019-02-23T17:54:14.051Z,5.57
2019-02-23T17:56:44.729Z,5.30
2019-02-23T17:59:15.224Z,4.63
2019-02-23T18:01:45.908Z,5.50
2019-02-23T18:04:16.466Z,4.37
2019-02-23T18:06:47.014Z,4.90
2019-02-23T18:09:17.520Z,4.53
2019-02-23T18:11:48.226Z,4.20
2019-02-23T18:14:18.760Z,5.37
2019-02-23T18:16:49.624Z,5.57
2019-02-23T18:19:20.538Z,4.00
2019-02-23T18:21:51.058Z,3.93
2019-02-23T18:24:21.824Z,4.60
2019-02-23T18:26:52.308Z,5.03
2019-02-23T18:29:22.790Z,4.83
2019-02-23T18:31:53.253Z,5.23
2019-02-23T18:34:23.955Z,6.40
2019-02-23T18:36:54.501Z,4.60
2019-02-23T18:39:25.042Z,5.17
2019-02-23T18:41:55.701Z,5.23
2019-02-23T18:44:26.143Z,4.67
2019-02-23T18:46:56.632Z,4.40
2019-02-23T18:49:27.418Z,5.10
2019-02-23T18:51:57.948Z,5.43
2019-02-23T18:54:28.517Z,4.27
2019-02-23T18:56:59.008Z,4.10
2019-02-23T18:59:29.461Z,5.30
2019-02-23T19:02:01.959Z,4.90
2019-02-23T19:04:32.429Z,4.77
2019-02-23T19:07:02.975Z,4.90
2019-02-23T19:09:33.562Z,4.50
2019-02-23T19:12:04.067Z,5.87
2019-02-23T19:14:34.555Z,6.10
2019-02-23T19:17:05.470Z,5.77
2019-02-23T19:19:36.225Z,5.33
2019-02-23T19:22:06.999Z,4.70
2019-02-23T19:24:39.676Z,5.23
2019-02-23T19:27:10.191Z,5.47
2019-02-23T19:29:42.008Z,4.10
2019-02-23T19:32:12.818Z,5.27
2019-02-23T19:34:43.301Z,7.90
2019-02-23T19:37:13.860Z,6.00
2019-02-23T19:39:44.797Z,6.60
2019-02-23T19:42:15.489Z,5.30
2019-02-23T19:44:46.178Z,7.50
2019-02-23T19:47:21.353Z,6.10
2019-02-23T19:49:58.640Z,5.83
2019-02-23T19:52:29.285Z,5.50
2019-02-23T19:54:59.949Z,6.53
2019-02-23T19:57:31.508Z,7.50
2019-02-23T20:00:02.082Z,6.23
2019-02-23T20:02:32.669Z,5.30
2019-02-23T20:05:03.529Z,7.63
2019-02-23T20:07:34.036Z,5.33
2019-02-23T20:10:04.851Z,7.53
2019-02-23T20:12:35.660Z,7.57
2019-02-23T20:15:06.708Z,6.20
2019-02-23T20:17:37.556Z,6.13
2019-02-23T20:20:09.256Z,5.50
2019-02-23T20:22:40.032Z,6.33
2019-02-23T20:25:10.992Z,6.30
2019-02-23T20:27:41.525Z,6.30
2019-02-23T20:30:12.330Z,6.17
2019-02-23T20:32:42.826Z,7.10
2019-02-23T20:35:13.364Z,6.47
2019-02-23T20:37:43.994Z,7.50
2019-02-23T20:40:14.841Z,5.53
2019-02-23T20:42:45.344Z,5.80
2019-02-23T20:45:15.883Z,5.47
2019-02-23T20:47:46.414Z,5.63
2019-02-23T20:50:17.006Z,5.40
2019-02-23T20:52:47.923Z,5.50
2019-02-23T20:55:19.155Z,6.77
2019-02-23T20:57:49.602Z,5.30
2019-02-23T21:00:20.307Z,5.37
2019-02-23T21:02:50.947Z,6.60
2019-02-23T21:05:21.512Z,5.43
2019-02-23T21:07:51.985Z,6.60
2019-02-23T21:10:22.590Z,6.00
2019-02-23T21:12:53.151Z,5.30
2019-02-23T21:15:23.649Z,6.50
2019-02-23T21:17:54.329Z,7.50
2019-02-23T21:20:25.066Z,5.90
2019-02-23T21:22:55.578Z,5.57
2019-02-23T21:25:26.230Z,5.60
2019-02-23T21:27:56.673Z,6.43
2019-02-23T21:30:27.232Z,5.80
2019-02-23T21:32:57.729Z,5.97
2019-02-23T21:35:28.269Z,5.90
2019-02-23T21:37:58.846Z,6.50
2019-02-23T21:40:29.306Z,5.07
2019-02-23T21:42:59.911Z,4.80
2019-02-23T21:45:30.583Z,4.87
2019-02-23T21:48:01.066Z,5.20
2019-02-23T21:50:31.556Z,7.17
2019-02-23T21:53:02.091Z,5.47
2019-02-23T21:55:32.572Z,7.80
2019-02-23T21:58:03.026Z,5.40
2019-02-23T22:00:33.641Z,6.30
2019-02-23T22:03:04.123Z,4.90
2019-02-23T22:05:35.865Z,6.53
2019-02-23T22:08:06.814Z,6.20
2019-02-23T22:10:37.635Z,5.90
2019-02-23T22:13:08.728Z,5.43
2019-02-23T22:15:39.406Z,5.33
2019-02-23T22:18:10.042Z,5.30
2019-02-23T22:20:40.800Z,4.83
2019-02-23T22:23:11.318Z,5.77
2019-02-23T22:25:41.957Z,5.57
2019-02-23T22:28:12.461Z,4.80
2019-02-23T22:30:43.016Z,6.60
2019-02-23T22:33:13.619Z,5.00
2019-02-23T22:35:44.463Z,5.03
2019-02-23T22:38:14.986Z,5.57
2019-02-23T22:40:45.955Z,5.17
2019-02-23T22:43:17.318Z,5.07
2019-02-23T22:45:47.926Z,5.37
2019-02-23T22:48:18.409Z,5.80
2019-02-23T22:50:48.888Z,6.57
2019-02-23T22:53:19.335Z,4.80
2019-02-23T22:55:49.855Z,5.23
2019-02-23T22:58:20.335Z,5.27
2019-02-23T23:00:58.905Z,4.97
2019-02-23T23:03:29.807Z,4.40
2019-02-23T23:06:00.345Z,4.67
2019-02-23T23:08:30.834Z,5.70
2019-02-23T23:11:01.320Z,4.63
2019-02-23T23:13:31.822Z,5.10
2019-02-23T23:16:02.312Z,5.80
2019-02-23T23:18:32.805Z,4.70
2019-02-23T23:21:03.250Z,5.33
2019-02-23T23:23:33.688Z,5.30
2019-02-23T23:26:04.153Z,4.67
2019-02-23T23:28:34.604Z,5.17
2019-02-23T23:31:05.049Z,4.90
2019-02-23T23:33:35.538Z,4.60
2019-02-23T23:36:06.000Z,4.60
2019-02-23T23:38:36.470Z,5.00
2019-02-23T23:41:06.877Z,5.10
2019-02-23T23:43:37.334Z,5.47
2019-02-23T23:46:07.834Z,4.90
2019-02-23T23:48:38.581Z,5.00
2019-02-23T23:51:09.032Z,5.47
2019-02-23T23:53:41.872Z,5.37
2019-02-23T23:56:12.353Z,4.27
2019-02-23T23:58:42.990Z,4.33
